NY/NJ Local METAR Reports

 

KNYC - NYC/Central Park, NY, USA
Distance from Hoboken: NE 4mi, 7km
Updated: 11/24/2017 3:51am
Clear
Clear
 Wind from W
Wind: W 3 mph , 6 km/h
Temperature: 36°F , 2°C
Dew Point: 21°F , -6°C
Humidity: 56%
Barometer: 30.05 inHg , 1017.6 hPa
Clouds: Clear
Visibility: 10 miles , 16 km
2017/11/24 08:51 KNYC 240851Z AUTO 28003KT 10SM CLR 02/M06 A3005 RMK AO2 SLP168 T00221061 58000 $
KEWR - Newark, NJ, USA
Distance from Hoboken: WSW 8mi, 13km
Updated: 11/24/2017 3:51am
Clear
Clear
 Wind from calm
Wind: Calm
Temperature: 32°F , 0°C
Dew Point: 21°F , -6°C
Humidity: 64%
Barometer: 30.05 inHg , 1017.6 hPa
Clouds: Clear
Visibility: 10 miles , 16 km
2017/11/24 08:51 KEWR 240851Z 00000KT 10SM CLR 00/M06 A3005 RMK AO2 SLP173 T00001061 52001
 
KLGA - NYC/La Guardia, NY, USA
Distance from Hoboken: ENE 8mi, 13km
Updated: 11/24/2017 3:51am
Clear
Clear
 Wind from WNW
Wind: WNW 9 mph , 15 km/h
Temperature: 39°F , 4°C
Wind Chill: 33°F , 1°C
Dew Point: 23°F , -5°C
Humidity: 52%
Barometer: 30.03 inHg , 1016.9 hPa
Clouds: Clear
Visibility: 10 miles , 16 km
2017/11/24 08:51 KLGA 240851Z 30008KT 10SM CLR 04/M05 A3003 RMK AO2 SLP169 T00391050 58001
KTEB - Teterboro, NJ, USA
Distance from Hoboken: N 9mi, 14km
Updated: 11/24/2017 3:51am
Clear
Clear
 Wind from calm
Wind: Calm
Temperature: 28°F , -2°C
Dew Point: 21°F , -6°C
Humidity: 74%
Barometer: 30.03 inHg , 1016.9 hPa
Clouds: Clear
Visibility: 10 miles , 16 km
2017/11/24 08:51 KTEB 240851Z 00000KT 10SM CLR M02/M06 A3003 RMK AO2 SLP169 T10171056 50001
 
KJFK - NYC/Jfk Arpt, NY, USA
Distance from Hoboken: ESE 16mi, 25km
Updated: 11/24/2017 3:51am
Clear
Clear
 Wind from W
Wind: W 7 mph , 11 km/h
Temperature: 36°F , 2°C
Wind Chill: 30°F , -1°C
Dew Point: 25°F , -4°C
Humidity: 65%
Barometer: 30.05 inHg , 1017.6 hPa
Clouds: Clear
Visibility: 10 miles , 16 km
2017/11/24 08:51 KJFK 240851Z 27006KT 10SM CLR 02/M04 A3005 RMK AO2 SLP174 T00221044 58001
KCDW - Caldwell, NJ, USA
Distance from Hoboken: NW 16mi, 26km
Updated: 11/24/2017 3:53am
Clear
Clear
 Wind from calm
Wind: Calm
Temperature: 27°F , -3°C
Dew Point: 21°F , -6°C
Humidity: 80%
Barometer: 30.04 inHg , 1017.3 hPa
Clouds: Clear
Visibility: 10 miles , 16 km
2017/11/24 08:53 KCDW 240853Z AUTO 00000KT 10SM CLR M03/M06 A3004 RMK AO2 SLP179 T10281061 50001 TSNO
 
KMMU - Morristown Muni, NJ, USA
Distance from Hoboken: W 20mi, 33km
Updated: 11/24/2017 3:55am
Clear
Clear
 Wind from calm
Wind: Calm
Temperature: 23°F , -5°C
Dew Point: 23°F , -5°C
Humidity: 100%
Barometer: 30.03 inHg , 1016.9 hPa
Clouds: Clear
Visibility: 10 miles , 16 km
2017/11/24 08:55 KMMU 240855Z AUTO 00000KT 10SM CLR M05/M05 A3003 RMK AO2
KHPN - White Plains, NY, USA
Distance from Hoboken: NE 28mi, 46km
Updated: 11/24/2017 3:56am
Clear
Clear
 Wind from W
Wind: W 6 mph , 9 km/h
Temperature: 30°F , -1°C
Wind Chill: 24°F , -4°C
Dew Point: 21°F , -6°C
Humidity: 69%
Barometer: 30.00 inHg , 1015.9 hPa
Clouds: Clear
Visibility: 10 miles , 16 km
2017/11/24 08:56 KHPN 240856Z 28005KT 10SM CLR M01/M06 A3000 RMK AO2 SLP167 T10061056 50000
 
KFRG - Farmingdale, NY, USA
Distance from Hoboken: E 32mi, 52km
Updated: 11/24/2017 3:53am
Clear
Clear
 Wind from calm
Wind: Calm
Temperature: 28°F , -2°C
Dew Point: 25°F , -4°C
Humidity: 86%
Barometer: 30.03 inHg , 1016.9 hPa
Clouds: Clear
Visibility: 10 miles , 16 km
2017/11/24 08:53 KFRG 240853Z AUTO 00000KT 10SM CLR M02/M04 A3003 RMK AO2 SLP171 T10171044 50000
KSMQ - Somerville, NJ, USA
Distance from Hoboken: WSW 34mi, 55km
Updated: 11/24/2017 3:53am
Clear
Clear
 Wind from calm
Wind: Calm
Temperature: 21°F , -6°C
Dew Point: 19°F , -7°C
Humidity: 93%
Barometer: 30.03 inHg , 1016.9 hPa
Clouds: Clear
Visibility: 10 miles , 16 km
2017/11/24 08:53 KSMQ 240853Z AUTO 00000KT 10SM CLR M06/M07 A3003 RMK AO2 SLP172 I1000 I3001 T10561067 50000
 
KBLM - Belmar/Farmdale, NJ, USA
Distance from Hoboken: S 40mi, 64km
Updated: 11/24/2017 3:56am
Clear
Clear
 Wind from WSW
Wind: WSW 6 mph , 9 km/h
Temperature: 28°F , -2°C
Wind Chill: 21°F , -6°C
Dew Point: 21°F , -6°C
Humidity: 74%
Barometer: 30.05 inHg , 1017.6 hPa
Clouds: Clear
Visibility: 10 miles , 16 km
2017/11/24 08:56 KBLM 240856Z AUTO 24005KT 10SM CLR M02/M06 A3005 RMK AO2 SLP182 T10221061 57002 FZRANO
K12N - Andover, NJ, USA
Distance from Hoboken: WNW 41mi, 67km
Updated: 11/24/2017 3:54am

 Wind from calm
Wind: Calm
Temperature: 23°F , -5°C
Dew Point: 21°F , -6°C
Humidity: 93%
Barometer: 30.03 inHg , 1016.9 hPa
2017/11/24 08:54 K12N 240854Z AUTO 00000KT M05/M06 A3003 RMK AO1 SLP179 T10501061 51004
 
KFWN - Sussex, NJ, USA
Distance from Hoboken: NW 45mi, 72km
Updated: 11/24/2017 3:53am
Partly cloudy
Partly cloudy
 Wind from WSW
Wind: WSW 3 mph , 6 km/h
Temperature: 23°F , -5°C
Dew Point: 21°F , -6°C
Humidity: 93%
Barometer: 30.02 inHg , 1016.6 hPa
Clouds: Partly cloudy
Visibility: 10 miles , 16 km
Cloud details: Partly cloudy 6500 ft
2017/11/24 08:53 KFWN 240853Z AUTO 25003KT 10SM SCT065 M05/M06 A3002 RMK AO2 SLP170 T10501061 50002
KISP - Islip, NY, USA
Distance from Hoboken: E 49mi, 79km
Updated: 11/24/2017 3:56am
Clear
Clear
 Wind from calm
Wind: Calm
Temperature: 30°F , -1°C
Dew Point: 23°F , -5°C
Humidity: 75%
Barometer: 30.02 inHg , 1016.6 hPa
Clouds: Clear
Visibility: 10 miles , 16 km
2017/11/24 08:56 KISP 240856Z AUTO 00000KT 10SM CLR M01/M05 A3002 RMK AO2 SLP167 T10111050 55000